Orbital elements of BREEZE-M DEB
| Launched | 27 February 2006 |
| Flight ended | – |
| Launch site | Tyuratam Missile and Space Center, Kazakhstan (Also known as Baikonur Cosmodrome) |
| Owner | Commonwealth of Independent States (former USSR) |
| NORAD ID | 32047 |
| Date fetched |
Epoch osculation |
Inc. [°] |
Ecc. | RA asc node [hr] |
Arg Peri. [°] |
Mean anom [°] |
Mean motion [rev/day] |
Abs. mag |
| Date fetched |
Epoch osculation |
Inc. [°] |
Ecc. | RA asc node [hr] |
Arg Peri. [°] |
Mean anom [°] |
Mean motion [rev/day] |
Abs. mag |
| 2026 May 04 17:57 | 2026 Apr 29 07:29:32 | 51.3791 | 0.43473 | 15.5318 | 263.4518 | 46.9000 | 6.49003 | – |
| 2026 May 03 17:57 | 2026 Apr 29 07:29:32 | 51.3791 | 0.43473 | 15.5318 | 263.4518 | 46.9000 | 6.49003 | – |
| 2026 May 02 17:57 | 2026 Apr 29 07:29:32 | 51.3791 | 0.43473 | 15.5318 | 263.4518 | 46.9000 | 6.49003 | – |
| 2026 May 01 17:56 | 2026 Apr 29 07:29:32 | 51.3791 | 0.43473 | 15.5318 | 263.4518 | 46.9000 | 6.49003 | – |
| 2026 Apr 30 17:56 | 2026 Apr 29 07:29:32 | 51.3791 | 0.43473 | 15.5318 | 263.4518 | 46.9000 | 6.49003 | – |
| 2026 Apr 29 17:57 | 2026 Apr 24 09:09:23 | 51.3595 | 0.43411 | 15.8572 | 259.7287 | 46.9000 | 6.49003 | – |
| 2026 Apr 28 17:56 | 2026 Apr 24 09:09:23 | 51.3595 | 0.43411 | 15.8572 | 259.7287 | 46.9000 | 6.49003 | – |
| 2026 Apr 27 17:58 | 2026 Apr 24 09:09:23 | 51.3595 | 0.43411 | 15.8572 | 259.7287 | 46.9000 | 6.49003 | – |
| 2026 Apr 26 17:58 | 2026 Apr 24 09:09:23 | 51.3595 | 0.43411 | 15.8572 | 259.7287 | 46.9000 | 6.49003 | – |
| 2026 Apr 25 17:58 | 2026 Apr 24 09:09:23 | 51.3595 | 0.43411 | 15.8572 | 259.7287 | 46.9000 | 6.49003 | – |
| 2026 Apr 24 17:59 | 2026 Apr 24 09:09:23 | 51.3595 | 0.43411 | 15.8572 | 259.7287 | 46.9000 | 6.49003 | – |
| 2026 Apr 23 17:57 | 2026 Apr 16 23:33:23 | 51.3639 | 0.43419 | 16.3463 | 254.1808 | 46.9000 | 6.49003 | – |
| 2026 Apr 22 17:57 | 2026 Apr 16 23:33:23 | 51.3639 | 0.43419 | 16.3463 | 254.1808 | 46.9000 | 6.49003 | – |
| 2026 Apr 21 17:57 | 2026 Apr 16 23:33:23 | 51.3639 | 0.43419 | 16.3463 | 254.1808 | 46.9000 | 6.49003 | – |
| 2026 Apr 20 17:57 | 2026 Apr 16 23:33:23 | 51.3639 | 0.43419 | 16.3463 | 254.1808 | 46.9000 | 6.49003 | – |
| 2026 Apr 19 17:58 | 2026 Apr 16 23:33:23 | 51.3639 | 0.43419 | 16.3463 | 254.1808 | 46.9000 | 6.49003 | – |
| 2026 Apr 18 17:56 | 2026 Apr 12 08:30:47 | 51.3618 | 0.43406 | 16.6513 | 250.7195 | 46.9000 | 6.49003 | – |
| 2026 Apr 16 17:57 | 2026 Apr 12 08:30:47 | 51.3618 | 0.43406 | 16.6513 | 250.7195 | 46.9000 | 6.49003 | – |
| 2026 Apr 14 17:57 | 2026 Apr 12 08:30:47 | 51.3618 | 0.43406 | 16.6513 | 250.7195 | 46.9000 | 6.49003 | – |
| 2026 Apr 13 17:57 | 2026 Apr 12 08:30:47 | 51.3618 | 0.43406 | 16.6513 | 250.7195 | 46.9000 | 6.49003 | – |
| 2026 Apr 12 17:57 | 2026 Apr 07 17:26:30 | 51.3625 | 0.43385 | 16.9561 | 247.2461 | 46.9000 | 6.49003 | – |
| 2026 Apr 11 17:57 | 2026 Apr 07 17:26:30 | 51.3625 | 0.43385 | 16.9561 | 247.2461 | 46.9000 | 6.49003 | – |
| 2026 Apr 10 17:58 | 2026 Apr 07 17:26:30 | 51.3625 | 0.43385 | 16.9561 | 247.2461 | 46.9000 | 6.49003 | – |
| 2026 Apr 09 18:01 | 2026 Apr 07 17:26:30 | 51.3625 | 0.43385 | 16.9561 | 247.2461 | 46.9000 | 6.49003 | – |
| 2026 Apr 08 17:57 | 2026 Apr 07 17:26:30 | 51.3625 | 0.43385 | 16.9561 | 247.2461 | 46.9000 | 6.49003 | – |
| 2026 Apr 07 17:57 | 2026 Apr 01 02:10:27 | 51.3563 | 0.43384 | 17.3927 | 242.2742 | 46.9000 | 6.49003 | – |